sensor_id;sensor_type;location;lat;lon;timestamp;pressure;altitude;pressure_sealevel;temperature;humidity
68948;BME280;55996;49.546;7.400;2022-12-29T00:01:46;98018.84;;;11.16;100.00
68948;BME280;55996;49.546;7.400;2022-12-29T00:04:13;98017.06;;;10.97;100.00
68948;BME280;55996;49.546;7.400;2022-12-29T00:06:40;98007.41;;;10.99;100.00
68948;BME280;55996;49.546;7.400;2022-12-29T00:09:05;98013.09;;;11.07;100.00
68948;BME280;55996;49.546;7.400;2022-12-29T00:11:31;98005.63;;;11.00;100.00
68948;BME280;55996;49.546;7.400;2022-12-29T00:13:56;98002.88;;;11.03;100.00
68948;BME280;55996;49.546;7.400;2022-12-29T00:16:42;97994.75;;;11.45;100.00
68948;BME280;55996;49.546;7.400;2022-12-29T00:19:08;98001.56;;;11.30;100.00
68948;BME280;55996;49.546;7.400;2022-12-29T00:21:53;97990.31;;;11.28;100.00
68948;BME280;55996;49.546;7.400;2022-12-29T00:24:37;97997.13;;;11.33;100.00
68948;BME280;55996;49.546;7.400;2022-12-29T00:27:21;97990.28;;;10.92;100.00
68948;BME280;55996;49.546;7.400;2022-12-29T00:30:10;98008.50;;;10.93;100.00
68948;BME280;55996;49.546;7.400;2022-12-29T00:32:54;97995.78;;;11.05;100.00
68948;BME280;55996;49.546;7.400;2022-12-29T00:35:42;97989.97;;;11.36;100.00
68948;BME280;55996;49.546;7.400;2022-12-29T00:38:10;97973.66;;;11.12;100.00
68948;BME280;55996;49.546;7.400;2022-12-29T00:40:54;97985.94;;;11.10;100.00
68948;BME280;55996;49.546;7.400;2022-12-29T00:43:38;97980.66;;;10.92;100.00
68948;BME280;55996;49.546;7.400;2022-12-29T00:46:22;97946.28;;;11.19;100.00
68948;BME280;55996;49.546;7.400;2022-12-29T00:48:47;97977.75;;;10.98;100.00
68948;BME280;55996;49.546;7.400;2022-12-29T00:51:31;97968.78;;;11.04;100.00
68948;BME280;55996;49.546;7.400;2022-12-29T00:53:56;97974.50;;;10.93;100.00
68948;BME280;55996;49.546;7.400;2022-12-29T00:56:22;97959.38;;;10.81;100.00
68948;BME280;55996;49.546;7.400;2022-12-29T00:58:47;97959.88;;;11.08;100.00
68948;BME280;55996;49.546;7.400;2022-12-29T01:01:13;97964.59;;;11.19;100.00
68948;BME280;55996;49.546;7.400;2022-12-29T01:03:39;97965.09;;;11.08;100.00
68948;BME280;55996;49.546;7.400;2022-12-29T01:06:06;97976.78;;;10.82;100.00
68948;BME280;55996;49.546;7.400;2022-12-29T01:08:32;97961.88;;;10.84;100.00
68948;BME280;55996;49.546;7.400;2022-12-29T01:11:06;97952.25;;;10.85;100.00
68948;BME280;55996;49.546;7.400;2022-12-29T01:13:33;97947.53;;;10.93;100.00
68948;BME280;55996;49.546;7.400;2022-12-29T01:15:58;97937.53;;;11.01;100.00
68948;BME280;55996;49.546;7.400;2022-12-29T01:18:25;97951.66;;;11.16;100.00
68948;BME280;55996;49.546;7.400;2022-12-29T01:20:50;97944.28;;;11.24;100.00
68948;BME280;55996;49.546;7.400;2022-12-29T01:23:16;97946.59;;;11.13;100.00
68948;BME280;55996;49.546;7.400;2022-12-29T01:25:42;97932.75;;;11.28;100.00
68948;BME280;55996;49.546;7.400;2022-12-29T01:28:07;97942.00;;;11.36;100.00
68948;BME280;55996;49.546;7.400;2022-12-29T01:30:36;97925.97;;;11.24;100.00
68948;BME280;55996;49.546;7.400;2022-12-29T01:33:01;97925.19;;;11.22;100.00
68948;BME280;55996;49.546;7.400;2022-12-29T01:35:27;97930.41;;;11.05;100.00
68948;BME280;55996;49.546;7.400;2022-12-29T01:37:52;97941.06;;;11.19;100.00
68948;BME280;55996;49.546;7.400;2022-12-29T01:40:18;97931.31;;;11.23;100.00
68948;BME280;55996;49.546;7.400;2022-12-29T01:42:44;97930.22;;;11.63;100.00
68948;BME280;55996;49.546;7.400;2022-12-29T01:45:11;97926.78;;;11.44;100.00
68948;BME280;55996;49.546;7.400;2022-12-29T01:47:45;97924.78;;;11.49;100.00
68948;BME280;55996;49.546;7.400;2022-12-29T01:52:51;97894.69;;;11.58;100.00
68948;BME280;55996;49.546;7.400;2022-12-29T01:55:19;97909.56;;;11.57;100.00
68948;BME280;55996;49.546;7.400;2022-12-29T01:57:48;97903.06;;;11.65;100.00
68948;BME280;55996;49.546;7.400;2022-12-29T02:00:15;97912.31;;;11.72;100.00
68948;BME280;55996;49.546;7.400;2022-12-29T02:02:42;97912.50;;;11.69;100.00
68948;BME280;55996;49.546;7.400;2022-12-29T02:05:56;97896.31;;;11.78;100.00
68948;BME280;55996;49.546;7.400;2022-12-29T02:08:26;97903.09;;;12.00;100.00
68948;BME280;55996;49.546;7.400;2022-12-29T02:10:54;97903.84;;;11.84;100.00
68948;BME280;55996;49.546;7.400;2022-12-29T02:13:20;97894.84;;;11.72;100.00
68948;BME280;55996;49.546;7.400;2022-12-29T02:24:23;97898.78;;;11.99;100.00
68948;BME280;55996;49.546;7.400;2022-12-29T02:27:12;97881.69;;;11.74;100.00
68948;BME280;55996;49.546;7.400;2022-12-29T02:30:11;97883.06;;;11.81;100.00
68948;BME280;55996;49.546;7.400;2022-12-29T02:35:25;97889.84;;;11.85;100.00
68948;BME280;55996;49.546;7.400;2022-12-29T02:38:18;97869.59;;;11.71;100.00
68948;BME280;55996;49.546;7.400;2022-12-29T02:40:53;97868.28;;;11.80;100.00
68948;BME280;55996;49.546;7.400;2022-12-29T02:48:52;97874.41;;;12.14;100.00
68948;BME280;55996;49.546;7.400;2022-12-29T02:51:33;97858.56;;;12.00;100.00
68948;BME280;55996;49.546;7.400;2022-12-29T02:54:01;97868.28;;;11.98;100.00
68948;BME280;55996;49.546;7.400;2022-12-29T02:56:45;97851.75;;;11.95;100.00
68948;BME280;55996;49.546;7.400;2022-12-29T02:59:12;97849.34;;;11.75;100.00
68948;BME280;55996;49.546;7.400;2022-12-29T03:04:39;97853.19;;;11.68;100.00
68948;BME280;55996;49.546;7.400;2022-12-29T03:13:01;97836.00;;;11.79;100.00
68948;BME280;55996;49.546;7.400;2022-12-29T03:21:16;97833.44;;;11.78;100.00
68948;BME280;55996;49.546;7.400;2022-12-29T03:23:45;97840.63;;;11.74;100.00
68948;BME280;55996;49.546;7.400;2022-12-29T03:26:16;97824.84;;;11.41;100.00
68948;BME280;55996;49.546;7.400;2022-12-29T03:28:48;97832.38;;;12.00;100.00
68948;BME280;55996;49.546;7.400;2022-12-29T03:31:15;97827.22;;;11.81;100.00
68948;BME280;55996;49.546;7.400;2022-12-29T03:33:43;97836.53;;;11.86;100.00
68948;BME280;55996;49.546;7.400;2022-12-29T03:36:13;97834.44;;;12.26;100.00
68948;BME280;55996;49.546;7.400;2022-12-29T03:38:46;97817.97;;;11.91;100.00
68948;BME280;55996;49.546;7.400;2022-12-29T03:41:18;97821.97;;;11.81;100.00
68948;BME280;55996;49.546;7.400;2022-12-29T03:43:45;97825.03;;;11.89;100.00
68948;BME280;55996;49.546;7.400;2022-12-29T03:46:11;97838.88;;;11.75;100.00
68948;BME280;55996;49.546;7.400;2022-12-29T03:48:36;97827.47;;;11.76;100.00
68948;BME280;55996;49.546;7.400;2022-12-29T03:51:02;97822.66;;;11.84;100.00
68948;BME280;55996;49.546;7.400;2022-12-29T03:53:27;97825.38;;;11.83;100.00
68948;BME280;55996;49.546;7.400;2022-12-29T03:55:52;97843.06;;;12.29;100.00
68948;BME280;55996;49.546;7.400;2022-12-29T03:58:18;97834.38;;;11.94;100.00
68948;BME280;55996;49.546;7.400;2022-12-29T04:00:43;97829.44;;;11.71;100.00
68948;BME280;55996;49.546;7.400;2022-12-29T04:03:09;97844.06;;;11.92;100.00
68948;BME280;55996;49.546;7.400;2022-12-29T04:05:34;97824.53;;;11.82;100.00
68948;BME280;55996;49.546;7.400;2022-12-29T04:07:59;97831.59;;;11.80;100.00
68948;BME280;55996;49.546;7.400;2022-12-29T04:10:25;97812.97;;;11.86;100.00
68948;BME280;55996;49.546;7.400;2022-12-29T04:12:50;97829.53;;;11.69;100.00
68948;BME280;55996;49.546;7.400;2022-12-29T04:15:16;97819.44;;;11.79;100.00
68948;BME280;55996;49.546;7.400;2022-12-29T04:17:41;97820.75;;;11.70;100.00
68948;BME280;55996;49.546;7.400;2022-12-29T04:20:07;97834.00;;;11.85;100.00
68948;BME280;55996;49.546;7.400;2022-12-29T04:23:05;97822.06;;;11.79;100.00
68948;BME280;55996;49.546;7.400;2022-12-29T04:25:31;97827.22;;;11.63;100.00
68948;BME280;55996;49.546;7.400;2022-12-29T04:27:57;97827.28;;;11.79;100.00
68948;BME280;55996;49.546;7.400;2022-12-29T04:30:23;97824.84;;;11.76;100.00
68948;BME280;55996;49.546;7.400;2022-12-29T04:32:48;97827.22;;;12.14;100.00
68948;BME280;55996;49.546;7.400;2022-12-29T04:35:14;97827.13;;;12.00;100.00
68948;BME280;55996;49.546;7.400;2022-12-29T04:37:39;97819.84;;;12.54;100.00
68948;BME280;55996;49.546;7.400;2022-12-29T04:40:05;97816.41;;;12.20;100.00
68948;BME280;55996;49.546;7.400;2022-12-29T04:42:31;97822.94;;;12.29;100.00
68948;BME280;55996;49.546;7.400;2022-12-29T04:44:56;97815.84;;;12.31;100.00
68948;BME280;55996;49.546;7.400;2022-12-29T04:47:21;97824.91;;;12.25;100.00
68948;BME280;55996;49.546;7.400;2022-12-29T04:49:47;97824.41;;;12.35;100.00
68948;BME280;55996;49.546;7.400;2022-12-29T04:52:12;97803.69;;;12.46;100.00
68948;BME280;55996;49.546;7.400;2022-12-29T04:54:38;97821.59;;;12.22;100.00
68948;BME280;55996;49.546;7.400;2022-12-29T04:57:04;97806.91;;;12.19;100.00
68948;BME280;55996;49.546;7.400;2022-12-29T04:59:30;97822.84;;;12.15;100.00
68948;BME280;55996;49.546;7.400;2022-12-29T05:01:55;97816.63;;;12.33;100.00
68948;BME280;55996;49.546;7.400;2022-12-29T05:04:21;97820.91;;;12.18;100.00
68948;BME280;55996;49.546;7.400;2022-12-29T05:06:46;97807.38;;;12.10;100.00
68948;BME280;55996;49.546;7.400;2022-12-29T05:09:11;97807.63;;;12.05;100.00
68948;BME280;55996;49.546;7.400;2022-12-29T05:11:37;97827.41;;;12.11;100.00
68948;BME280;55996;49.546;7.400;2022-12-29T05:14:02;97818.53;;;12.14;100.00
68948;BME280;55996;49.546;7.400;2022-12-29T05:16:28;97817.72;;;12.13;100.00
68948;BME280;55996;49.546;7.400;2022-12-29T05:18:53;97822.03;;;12.30;100.00
68948;BME280;55996;49.546;7.400;2022-12-29T05:21:18;97817.59;;;11.99;100.00
68948;BME280;55996;49.546;7.400;2022-12-29T05:23:44;97814.13;;;12.14;100.00
68948;BME280;55996;49.546;7.400;2022-12-29T05:26:09;97831.72;;;12.12;100.00
68948;BME280;55996;49.546;7.400;2022-12-29T05:28:35;97825.97;;;12.21;100.00
68948;BME280;55996;49.546;7.400;2022-12-29T05:31:00;97825.75;;;12.26;100.00
68948;BME280;55996;49.546;7.400;2022-12-29T05:33:25;97828.19;;;12.13;100.00
68948;BME280;55996;49.546;7.400;2022-12-29T05:35:51;97820.72;;;12.05;100.00
68948;BME280;55996;49.546;7.400;2022-12-29T05:38:16;97813.91;;;12.35;100.00
68948;BME280;55996;49.546;7.400;2022-12-29T05:40:43;97827.59;;;12.24;100.00
68948;BME280;55996;49.546;7.400;2022-12-29T05:43:08;97807.88;;;12.01;100.00
68948;BME280;55996;49.546;7.400;2022-12-29T05:45:35;97816.94;;;12.11;100.00
68948;BME280;55996;49.546;7.400;2022-12-29T05:48:01;97813.22;;;12.15;100.00
68948;BME280;55996;49.546;7.400;2022-12-29T05:50:26;97805.94;;;12.20;100.00
68948;BME280;55996;49.546;7.400;2022-12-29T05:52:52;97814.56;;;12.22;100.00
68948;BME280;55996;49.546;7.400;2022-12-29T05:55:17;97813.44;;;12.44;100.00
68948;BME280;55996;49.546;7.400;2022-12-29T05:57:42;97808.31;;;12.25;100.00
68948;BME280;55996;49.546;7.400;2022-12-29T06:00:08;97820.50;;;12.26;100.00
68948;BME280;55996;49.546;7.400;2022-12-29T06:02:34;97798.25;;;12.17;100.00
68948;BME280;55996;49.546;7.400;2022-12-29T06:04:59;97797.34;;;12.18;100.00
68948;BME280;55996;49.546;7.400;2022-12-29T06:07:25;97800.28;;;12.12;100.00
68948;BME280;55996;49.546;7.400;2022-12-29T06:09:50;97802.63;;;12.17;100.00
68948;BME280;55996;49.546;7.400;2022-12-29T06:12:15;97802.59;;;12.34;100.00
68948;BME280;55996;49.546;7.400;2022-12-29T06:14:42;97800.78;;;12.19;100.00
68948;BME280;55996;49.546;7.400;2022-12-29T06:17:07;97799.34;;;11.95;100.00
68948;BME280;55996;49.546;7.400;2022-12-29T06:19:32;97806.50;;;12.43;100.00
68948;BME280;55996;49.546;7.400;2022-12-29T06:21:58;97810.25;;;12.21;100.00
68948;BME280;55996;49.546;7.400;2022-12-29T06:24:23;97813.41;;;12.28;100.00
68948;BME280;55996;49.546;7.400;2022-12-29T06:26:49;97827.53;;;12.25;100.00
68948;BME280;55996;49.546;7.400;2022-12-29T06:29:14;97838.66;;;12.29;100.00
68948;BME280;55996;49.546;7.400;2022-12-29T06:31:43;97832.53;;;11.97;100.00
68948;BME280;55996;49.546;7.400;2022-12-29T06:34:11;97843.91;;;12.13;100.00
68948;BME280;55996;49.546;7.400;2022-12-29T06:36:36;97833.22;;;12.00;100.00
68948;BME280;55996;49.546;7.400;2022-12-29T06:39:02;97838.44;;;12.00;100.00
68948;BME280;55996;49.546;7.400;2022-12-29T06:41:27;97824.69;;;11.79;100.00
68948;BME280;55996;49.546;7.400;2022-12-29T06:43:53;97831.94;;;11.74;100.00
68948;BME280;55996;49.546;7.400;2022-12-29T06:46:18;97809.59;;;11.67;100.00
68948;BME280;55996;49.546;7.400;2022-12-29T06:48:44;97834.63;;;11.72;100.00
68948;BME280;55996;49.546;7.400;2022-12-29T06:51:09;97837.91;;;11.93;100.00
68948;BME280;55996;49.546;7.400;2022-12-29T06:53:34;97823.59;;;11.66;100.00
68948;BME280;55996;49.546;7.400;2022-12-29T06:56:00;97825.22;;;11.86;100.00
68948;BME280;55996;49.546;7.400;2022-12-29T06:58:25;97841.44;;;11.92;100.00
68948;BME280;55996;49.546;7.400;2022-12-29T07:00:51;97856.88;;;11.81;100.00
68948;BME280;55996;49.546;7.400;2022-12-29T07:03:16;97851.97;;;11.57;100.00
68948;BME280;55996;49.546;7.400;2022-12-29T07:05:41;97842.09;;;11.80;100.00
68948;BME280;55996;49.546;7.400;2022-12-29T07:08:07;97843.53;;;11.68;100.00
68948;BME280;55996;49.546;7.400;2022-12-29T07:10:33;97870.00;;;11.63;100.00
68948;BME280;55996;49.546;7.400;2022-12-29T07:12:58;97858.75;;;11.61;100.00
68948;BME280;55996;49.546;7.400;2022-12-29T07:15:24;97851.03;;;11.76;100.00
68948;BME280;55996;49.546;7.400;2022-12-29T07:17:49;97842.84;;;11.65;100.00
68948;BME280;55996;49.546;7.400;2022-12-29T07:20:15;97846.97;;;11.53;100.00
68948;BME280;55996;49.546;7.400;2022-12-29T07:22:41;97857.88;;;11.78;100.00
68948;BME280;55996;49.546;7.400;2022-12-29T07:25:07;97846.03;;;11.71;100.00
68948;BME280;55996;49.546;7.400;2022-12-29T07:27:32;97862.63;;;11.88;100.00
68948;BME280;55996;49.546;7.400;2022-12-29T07:29:58;97871.03;;;11.94;100.00
68948;BME280;55996;49.546;7.400;2022-12-29T07:32:23;97853.53;;;11.95;100.00
68948;BME280;55996;49.546;7.400;2022-12-29T07:34:49;97849.84;;;11.82;100.00
68948;BME280;55996;49.546;7.400;2022-12-29T07:37:15;97850.97;;;11.60;100.00
68948;BME280;55996;49.546;7.400;2022-12-29T07:39:41;97862.25;;;11.78;100.00
68948;BME280;55996;49.546;7.400;2022-12-29T07:42:06;97851.88;;;11.59;100.00
68948;BME280;55996;49.546;7.400;2022-12-29T07:44:31;97869.09;;;11.81;100.00
68948;BME280;55996;49.546;7.400;2022-12-29T07:46:57;97867.19;;;12.02;100.00
68948;BME280;55996;49.546;7.400;2022-12-29T07:49:23;97862.47;;;12.08;100.00
68948;BME280;55996;49.546;7.400;2022-12-29T07:51:48;97873.72;;;11.93;100.00
68948;BME280;55996;49.546;7.400;2022-12-29T07:54:13;97879.53;;;11.82;100.00
68948;BME280;55996;49.546;7.400;2022-12-29T07:56:39;97857.63;;;11.83;100.00
68948;BME280;55996;49.546;7.400;2022-12-29T07:59:05;97883.81;;;11.83;100.00
68948;BME280;55996;49.546;7.400;2022-12-29T08:01:31;97881.38;;;11.80;100.00
68948;BME280;55996;49.546;7.400;2022-12-29T08:03:56;97881.19;;;11.83;100.00
68948;BME280;55996;49.546;7.400;2022-12-29T08:06:21;97889.84;;;11.85;100.00
68948;BME280;55996;49.546;7.400;2022-12-29T08:08:47;97892.78;;;11.97;100.00
68948;BME280;55996;49.546;7.400;2022-12-29T08:11:13;97889.19;;;12.15;100.00
68948;BME280;55996;49.546;7.400;2022-12-29T08:13:38;97881.19;;;11.83;100.00
68948;BME280;55996;49.546;7.400;2022-12-29T08:16:04;97886.47;;;12.01;100.00
68948;BME280;55996;49.546;7.400;2022-12-29T08:18:29;97891.53;;;12.04;100.00
68948;BME280;55996;49.546;7.400;2022-12-29T08:20:55;97886.28;;;12.04;100.00
68948;BME280;55996;49.546;7.400;2022-12-29T08:23:20;97897.84;;;12.17;100.00
68948;BME280;55996;49.546;7.400;2022-12-29T08:25:46;97897.69;;;12.03;100.00
68948;BME280;55996;49.546;7.400;2022-12-29T08:28:11;97907.13;;;12.23;100.00
68948;BME280;55996;49.546;7.400;2022-12-29T08:30:36;97899.06;;;12.10;100.00
68948;BME280;55996;49.546;7.400;2022-12-29T08:33:02;97903.25;;;11.97;100.00
68948;BME280;55996;49.546;7.400;2022-12-29T08:35:27;97900.16;;;12.06;100.00
68948;BME280;55996;49.546;7.400;2022-12-29T08:37:53;97908.03;;;11.88;100.00
68948;BME280;55996;49.546;7.400;2022-12-29T08:40:18;97907.69;;;11.77;100.00
68948;BME280;55996;49.546;7.400;2022-12-29T08:42:44;97903.31;;;11.60;100.00
68948;BME280;55996;49.546;7.400;2022-12-29T08:45:09;97894.94;;;11.88;100.00
68948;BME280;55996;49.546;7.400;2022-12-29T08:47:35;97896.00;;;11.84;100.00
68948;BME280;55996;49.546;7.400;2022-12-29T08:50:00;97894.94;;;12.06;100.00
68948;BME280;55996;49.546;7.400;2022-12-29T08:52:26;97902.06;;;12.20;100.00
68948;BME280;55996;49.546;7.400;2022-12-29T08:54:51;97914.59;;;11.97;100.00
68948;BME280;55996;49.546;7.400;2022-12-29T08:57:17;97894.47;;;11.98;100.00
68948;BME280;55996;49.546;7.400;2022-12-29T08:59:42;97899.06;;;12.10;100.00
68948;BME280;55996;49.546;7.400;2022-12-29T09:02:11;97903.47;;;12.09;100.00
68948;BME280;55996;49.546;7.400;2022-12-29T09:04:37;97898.03;;;12.30;100.00
68948;BME280;55996;49.546;7.400;2022-12-29T09:07:03;97912.00;;;12.31;100.00
68948;BME280;55996;49.546;7.400;2022-12-29T09:09:28;97910.94;;;12.51;100.00
68948;BME280;55996;49.546;7.400;2022-12-29T09:11:53;97923.84;;;12.38;100.00
68948;BME280;55996;49.546;7.400;2022-12-29T09:14:19;97936.22;;;12.18;100.00
68948;BME280;55996;49.546;7.400;2022-12-29T09:16:46;97931.94;;;12.00;100.00
68948;BME280;55996;49.546;7.400;2022-12-29T09:19:30;97962.78;;;11.75;100.00
68948;BME280;55996;49.546;7.400;2022-12-29T09:21:56;97949.38;;;11.64;100.00
68948;BME280;55996;49.546;7.400;2022-12-29T09:24:21;97961.94;;;11.57;100.00
68948;BME280;55996;49.546;7.400;2022-12-29T09:26:46;97971.59;;;11.38;100.00
68948;BME280;55996;49.546;7.400;2022-12-29T09:29:12;97989.91;;;11.38;100.00
68948;BME280;55996;49.546;7.400;2022-12-29T09:31:37;97984.78;;;11.35;100.00
68948;BME280;55996;49.546;7.400;2022-12-29T09:34:03;97998.03;;;11.32;100.00
68948;BME280;55996;49.546;7.400;2022-12-29T09:36:28;97981.09;;;11.21;100.00
68948;BME280;55996;49.546;7.400;2022-12-29T09:38:54;97986.31;;;11.21;100.00
68948;BME280;55996;49.546;7.400;2022-12-29T09:41:27;97990.78;;;11.19;100.00
68948;BME280;55996;49.546;7.400;2022-12-29T09:46:45;97984.84;;;11.16;100.00
68948;BME280;55996;49.546;7.400;2022-12-29T09:52:19;98011.06;;;11.14;100.00
68948;BME280;55996;49.546;7.400;2022-12-29T09:54:53;97998.41;;;11.05;100.00
68948;BME280;55996;49.546;7.400;2022-12-29T09:57:34;97992.53;;;11.00;100.00
68948;BME280;55996;49.546;7.400;2022-12-29T10:00:22;97999.75;;;10.94;100.00
68948;BME280;55996;49.546;7.400;2022-12-29T10:03:16;98003.19;;;10.95;100.00
68948;BME280;55996;49.546;7.400;2022-12-29T10:08:26;98006.09;;;10.89;100.00
68948;BME280;55996;49.546;7.400;2022-12-29T10:14:18;98004.69;;;11.01;100.00
68948;BME280;55996;49.546;7.400;2022-12-29T10:19:28;98010.28;;;11.12;100.00
68948;BME280;55996;49.546;7.400;2022-12-29T10:24:39;98007.03;;;11.07;100.00
68948;BME280;55996;49.546;7.400;2022-12-29T10:27:10;98009.44;;;11.11;100.00
68948;BME280;55996;49.546;7.400;2022-12-29T10:29:41;98005.25;;;11.07;100.00
68948;BME280;55996;49.546;7.400;2022-12-29T10:32:38;98007.25;;;11.21;100.00
68948;BME280;55996;49.546;7.400;2022-12-29T10:35:16;98004.97;;;11.33;100.00
68948;BME280;55996;49.546;7.400;2022-12-29T10:37:59;98003.13;;;11.35;100.00
68948;BME280;55996;49.546;7.400;2022-12-29T10:40:41;97990.75;;;11.75;100.00
68948;BME280;55996;49.546;7.400;2022-12-29T10:43:28;98008.56;;;11.86;100.00
68948;BME280;55996;49.546;7.400;2022-12-29T10:46:02;98005.97;;;11.67;100.00
68948;BME280;55996;49.546;7.400;2022-12-29T10:48:30;98012.06;;;11.67;100.00
68948;BME280;55996;49.546;7.400;2022-12-29T10:50:58;98021.28;;;11.74;100.00
68948;BME280;55996;49.546;7.400;2022-12-29T10:53:30;98006.06;;;11.83;100.00
68948;BME280;55996;49.546;7.400;2022-12-29T10:56:00;98015.94;;;11.77;100.00
68948;BME280;55996;49.546;7.400;2022-12-29T10:58:29;98015.53;;;11.68;100.00
68948;BME280;55996;49.546;7.400;2022-12-29T11:00:55;98019.38;;;11.78;100.00
68948;BME280;55996;49.546;7.400;2022-12-29T11:06:15;98028.69;;;12.03;100.00
68948;BME280;55996;49.546;7.400;2022-12-29T11:08:55;98014.63;;;11.86;100.00
68948;BME280;55996;49.546;7.400;2022-12-29T11:11:24;98017.78;;;11.93;100.00
68948;BME280;55996;49.546;7.400;2022-12-29T11:13:59;98022.09;;;11.94;100.00
68948;BME280;55996;49.546;7.400;2022-12-29T11:16:29;98022.91;;;11.96;100.00
68948;BME280;55996;49.546;7.400;2022-12-29T11:18:56;98039.34;;;12.00;100.00
68948;BME280;55996;49.546;7.400;2022-12-29T11:21:40;98030.88;;;11.93;100.00
68948;BME280;55996;49.546;7.400;2022-12-29T11:24:26;98026.56;;;11.92;100.00
68948;BME280;55996;49.546;7.400;2022-12-29T11:27:10;98035.09;;;12.15;100.00
68948;BME280;55996;49.546;7.400;2022-12-29T11:29:41;98031.38;;;12.36;100.00
68948;BME280;55996;49.546;7.400;2022-12-29T11:32:12;98028.22;;;12.30;100.00
68948;BME280;55996;49.546;7.400;2022-12-29T11:34:42;98025.53;;;12.31;100.00
68948;BME280;55996;49.546;7.400;2022-12-29T11:37:16;98028.13;;;12.49;100.00
68948;BME280;55996;49.546;7.400;2022-12-29T11:42:38;98026.66;;;12.61;100.00
68948;BME280;55996;49.546;7.400;2022-12-29T11:45:23;98016.78;;;12.66;100.00
68948;BME280;55996;49.546;7.400;2022-12-29T11:47:55;98006.41;;;12.47;100.00
68948;BME280;55996;49.546;7.400;2022-12-29T11:50:25;98027.28;;;12.48;100.00
68948;BME280;55996;49.546;7.400;2022-12-29T11:52:58;98035.38;;;12.43;100.00
68948;BME280;55996;49.546;7.400;2022-12-29T11:55:26;98040.09;;;12.54;100.00
68948;BME280;55996;49.546;7.400;2022-12-29T11:57:54;98025.06;;;12.40;100.00
68948;BME280;55996;49.546;7.400;2022-12-29T12:00:25;98028.69;;;12.55;100.00
68948;BME280;55996;49.546;7.400;2022-12-29T12:03:05;98026.66;;;12.61;100.00
68948;BME280;55996;49.546;7.400;2022-12-29T12:05:39;98021.09;;;12.67;100.00
68948;BME280;55996;49.546;7.400;2022-12-29T12:13:29;98018.25;;;12.54;100.00
68948;BME280;55996;49.546;7.400;2022-12-29T12:16:08;98017.13;;;12.42;100.00
68948;BME280;55996;49.546;7.400;2022-12-29T12:18:41;98004.66;;;12.30;100.00
68948;BME280;55996;49.546;7.400;2022-12-29T12:26:55;98012.97;;;12.38;100.00
68948;BME280;55996;49.546;7.400;2022-12-29T12:29:41;97990.34;;;12.35;100.00
68948;BME280;55996;49.546;7.400;2022-12-29T12:32:58;98005.00;;;12.57;100.00
68948;BME280;55996;49.546;7.400;2022-12-29T12:35:15;98001.47;;;12.40;100.00
68948;BME280;55996;49.546;7.400;2022-12-29T12:43:37;98000.63;;;12.40;100.00
68948;BME280;55996;49.546;7.400;2022-12-29T12:49:07;98001.06;;;12.48;100.00
68948;BME280;55996;49.546;7.400;2022-12-29T13:00:13;97988.50;;;12.37;100.00
68948;BME280;55996;49.546;7.400;2022-12-29T13:15:58;97989.06;;;12.44;100.00
68948;BME280;55996;49.546;7.400;2022-12-29T13:21:24;97999.31;;;12.31;100.00
68948;BME280;55996;49.546;7.400;2022-12-29T13:23:54;97979.66;;;12.40;100.00
68948;BME280;55996;49.546;7.400;2022-12-29T13:26:35;97981.19;;;12.44;100.00
68948;BME280;55996;49.546;7.400;2022-12-29T13:32:21;97985.16;;;12.51;100.00
68948;BME280;55996;49.546;7.400;2022-12-29T13:38:27;97984.78;;;12.25;100.00
68948;BME280;55996;49.546;7.400;2022-12-29T13:40:28;97980.88;;;12.33;100.00
68948;BME280;55996;49.546;7.400;2022-12-29T13:43:00;97978.34;;;12.31;100.00
68948;BME280;55996;49.546;7.400;2022-12-29T13:45:30;97973.75;;;12.19;100.00
68948;BME280;55996;49.546;7.400;2022-12-29T13:48:09;97991.94;;;12.22;100.00
68948;BME280;55996;49.546;7.400;2022-12-29T13:50:40;97989.00;;;12.10;100.00
68948;BME280;55996;49.546;7.400;2022-12-29T13:53:27;97979.34;;;11.93;100.00
68948;BME280;55996;49.546;7.400;2022-12-29T13:56:12;97985.34;;;11.78;100.00
68948;BME280;55996;49.546;7.400;2022-12-29T14:04:13;97992.44;;;11.76;100.00
68948;BME280;55996;49.546;7.400;2022-12-29T14:06:39;97995.94;;;11.57;100.00
68948;BME280;55996;49.546;7.400;2022-12-29T14:09:27;98000.25;;;11.58;100.00
68948;BME280;55996;49.546;7.400;2022-12-29T14:11:52;98001.31;;;11.54;100.00
68948;BME280;55996;49.546;7.400;2022-12-29T14:14:23;98004.94;;;11.52;100.00
68948;BME280;55996;49.546;7.400;2022-12-29T14:16:51;98011.66;;;11.57;100.00
68948;BME280;55996;49.546;7.400;2022-12-29T14:19:38;97998.91;;;11.50;100.00
68948;BME280;55996;49.546;7.400;2022-12-29T14:22:06;98018.91;;;11.33;100.00
68948;BME280;55996;49.546;7.400;2022-12-29T14:26:57;98021.16;;;11.41;100.00
68948;BME280;55996;49.546;7.400;2022-12-29T14:31:49;98020.94;;;11.45;100.00
68948;BME280;55996;49.546;7.400;2022-12-29T14:34:16;98024.38;;;11.46;100.00
68948;BME280;55996;49.546;7.400;2022-12-29T14:36:58;98022.34;;;11.34;100.00
68948;BME280;55996;49.546;7.400;2022-12-29T14:39:43;98015.03;;;11.23;100.00
68948;BME280;55996;49.546;7.400;2022-12-29T14:47:22;98023.75;;;11.41;100.00
68948;BME280;55996;49.546;7.400;2022-12-29T14:49:52;98022.75;;;11.43;100.00
68948;BME280;55996;49.546;7.400;2022-12-29T14:52:25;98034.72;;;11.49;100.00
68948;BME280;55996;49.546;7.400;2022-12-29T14:54:56;98029.41;;;11.51;100.00
68948;BME280;55996;49.546;7.400;2022-12-29T14:57:33;98042.13;;;11.58;100.00
68948;BME280;55996;49.546;7.400;2022-12-29T15:00:05;98039.97;;;11.49;100.00
68948;BME280;55996;49.546;7.400;2022-12-29T15:02:35;98033.59;;;11.36;100.00
68948;BME280;55996;49.546;7.400;2022-12-29T15:05:05;98029.56;;;11.28;100.00
68948;BME280;55996;49.546;7.400;2022-12-29T15:07:32;98036.50;;;11.29;100.00